sensor_id;sensor_type;location;lat;lon;timestamp;P1;P2;P0
69224;PMS1003;56333;51.306;17.056;2023-12-20T00:00:22;8.70;7.30;
69224;PMS1003;56333;51.306;17.056;2023-12-20T00:02:10;8.30;6.70;
69224;PMS1003;56333;51.306;17.056;2023-12-20T00:03:38;9.30;7.70;
69224;PMS1003;56333;51.306;17.056;2023-12-20T00:05:07;10.40;7.90;
69224;PMS1003;56333;51.306;17.056;2023-12-20T00:06:35;10.30;6.90;
69224;PMS1003;56333;51.306;17.056;2023-12-20T00:08:04;10.50;8.30;
69224;PMS1003;56333;51.306;17.056;2023-12-20T00:09:32;9.50;7.70;
69224;PMS1003;56333;51.306;17.056;2023-12-20T00:11:00;9.50;7.50;
69224;PMS1003;56333;51.306;17.056;2023-12-20T00:12:28;10.30;7.80;
69224;PMS1003;56333;51.306;17.056;2023-12-20T00:13:56;8.60;7.30;
69224;PMS1003;56333;51.306;17.056;2023-12-20T00:15:23;9.20;7.10;
69224;PMS1003;56333;51.306;17.056;2023-12-20T00:16:52;8.20;6.60;
69224;PMS1003;56333;51.306;17.056;2023-12-20T00:18:19;8.10;6.20;
69224;PMS1003;56333;51.306;17.056;2023-12-20T00:19:48;7.50;6.30;
69224;PMS1003;56333;51.306;17.056;2023-12-20T00:21:16;8.50;6.40;
69224;PMS1003;56333;51.306;17.056;2023-12-20T00:22:44;8.90;7.00;
69224;PMS1003;56333;51.306;17.056;2023-12-20T00:24:12;8.00;6.60;
69224;PMS1003;56333;51.306;17.056;2023-12-20T00:25:40;10.30;8.10;
69224;PMS1003;56333;51.306;17.056;2023-12-20T00:27:08;11.20;8.40;
69224;PMS1003;56333;51.306;17.056;2023-12-20T00:28:36;8.20;7.10;
69224;PMS1003;56333;51.306;17.056;2023-12-20T00:30:05;8.30;6.90;
69224;PMS1003;56333;51.306;17.056;2023-12-20T00:31:35;7.60;6.00;
69224;PMS1003;56333;51.306;17.056;2023-12-20T00:33:02;6.70;5.30;
69224;PMS1003;56333;51.306;17.056;2023-12-20T00:34:30;6.30;5.30;
69224;PMS1003;56333;51.306;17.056;2023-12-20T00:35:58;6.40;5.10;
69224;PMS1003;56333;51.306;17.056;2023-12-20T00:37:26;7.50;5.30;
69224;PMS1003;56333;51.306;17.056;2023-12-20T00:38:54;5.40;4.50;
69224;PMS1003;56333;51.306;17.056;2023-12-20T00:40:23;7.00;5.00;
69224;PMS1003;56333;51.306;17.056;2023-12-20T00:41:51;5.60;4.30;
69224;PMS1003;56333;51.306;17.056;2023-12-20T00:43:19;6.00;4.80;
69224;PMS1003;56333;51.306;17.056;2023-12-20T00:44:47;5.90;4.40;
69224;PMS1003;56333;51.306;17.056;2023-12-20T00:46:16;5.10;4.20;
69224;PMS1003;56333;51.306;17.056;2023-12-20T00:47:44;5.20;4.10;
69224;PMS1003;56333;51.306;17.056;2023-12-20T00:49:12;5.10;3.70;
69224;PMS1003;56333;51.306;17.056;2023-12-20T00:50:40;5.40;3.60;
69224;PMS1003;56333;51.306;17.056;2023-12-20T00:52:08;4.20;3.50;
69224;PMS1003;56333;51.306;17.056;2023-12-20T00:53:37;4.90;3.60;
69224;PMS1003;56333;51.306;17.056;2023-12-20T00:55:06;4.80;3.70;
69224;PMS1003;56333;51.306;17.056;2023-12-20T00:56:34;5.20;3.70;
69224;PMS1003;56333;51.306;17.056;2023-12-20T00:58:03;4.70;3.70;
69224;PMS1003;56333;51.306;17.056;2023-12-20T00:59:31;4.70;3.60;
69224;PMS1003;56333;51.306;17.056;2023-12-20T01:00:59;4.10;3.10;
69224;PMS1003;56333;51.306;17.056;2023-12-20T01:02:27;4.70;3.70;
69224;PMS1003;56333;51.306;17.056;2023-12-20T01:03:55;4.80;3.30;
69224;PMS1003;56333;51.306;17.056;2023-12-20T01:05:23;4.20;3.20;
69224;PMS1003;56333;51.306;17.056;2023-12-20T01:06:52;4.20;3.30;
69224;PMS1003;56333;51.306;17.056;2023-12-20T01:08:20;4.30;3.30;
69224;PMS1003;56333;51.306;17.056;2023-12-20T01:09:47;4.30;3.20;
69224;PMS1003;56333;51.306;17.056;2023-12-20T01:11:15;4.20;3.40;
69224;PMS1003;56333;51.306;17.056;2023-12-20T01:12:44;4.40;3.60;
69224;PMS1003;56333;51.306;17.056;2023-12-20T01:14:12;4.00;3.10;
69224;PMS1003;56333;51.306;17.056;2023-12-20T01:15:40;4.20;3.70;
69224;PMS1003;56333;51.306;17.056;2023-12-20T01:17:09;3.60;3.10;
69224;PMS1003;56333;51.306;17.056;2023-12-20T01:18:36;4.00;3.20;
69224;PMS1003;56333;51.306;17.056;2023-12-20T01:20:08;4.10;3.40;
69224;PMS1003;56333;51.306;17.056;2023-12-20T01:21:36;4.50;3.40;
69224;PMS1003;56333;51.306;17.056;2023-12-20T01:23:04;4.30;3.30;
69224;PMS1003;56333;51.306;17.056;2023-12-20T01:24:33;4.60;3.30;
69224;PMS1003;56333;51.306;17.056;2023-12-20T01:26:01;4.40;3.40;
69224;PMS1003;56333;51.306;17.056;2023-12-20T01:27:30;4.70;3.40;
69224;PMS1003;56333;51.306;17.056;2023-12-20T01:28:58;4.90;3.20;
69224;PMS1003;56333;51.306;17.056;2023-12-20T01:30:27;4.70;3.10;
69224;PMS1003;56333;51.306;17.056;2023-12-20T01:31:55;4.00;3.20;
69224;PMS1003;56333;51.306;17.056;2023-12-20T01:33:23;3.90;3.10;
69224;PMS1003;56333;51.306;17.056;2023-12-20T01:34:51;4.20;3.30;
69224;PMS1003;56333;51.306;17.056;2023-12-20T01:36:19;3.70;3.10;
69224;PMS1003;56333;51.306;17.056;2023-12-20T01:37:47;4.40;3.20;
69224;PMS1003;56333;51.306;17.056;2023-12-20T01:39:15;4.10;3.10;
69224;PMS1003;56333;51.306;17.056;2023-12-20T01:40:43;5.50;3.40;
69224;PMS1003;56333;51.306;17.056;2023-12-20T01:42:11;4.40;3.40;
69224;PMS1003;56333;51.306;17.056;2023-12-20T01:43:39;4.10;3.20;
69224;PMS1003;56333;51.306;17.056;2023-12-20T01:45:09;3.90;3.30;
69224;PMS1003;56333;51.306;17.056;2023-12-20T01:46:37;4.30;3.10;
69224;PMS1003;56333;51.306;17.056;2023-12-20T01:48:08;4.00;3.30;
69224;PMS1003;56333;51.306;17.056;2023-12-20T01:49:36;3.40;2.70;
69224;PMS1003;56333;51.306;17.056;2023-12-20T01:51:05;3.90;3.00;
69224;PMS1003;56333;51.306;17.056;2023-12-20T01:52:34;3.60;2.90;
69224;PMS1003;56333;51.306;17.056;2023-12-20T01:54:03;4.30;3.30;
69224;PMS1003;56333;51.306;17.056;2023-12-20T01:55:35;3.50;2.60;
69224;PMS1003;56333;51.306;17.056;2023-12-20T01:57:07;4.30;2.80;
69224;PMS1003;56333;51.306;17.056;2023-12-20T01:58:35;3.50;3.00;
69224;PMS1003;56333;51.306;17.056;2023-12-20T02:00:11;3.60;3.00;
69224;PMS1003;56333;51.306;17.056;2023-12-20T02:01:40;3.50;2.90;
69224;PMS1003;56333;51.306;17.056;2023-12-20T02:03:08;3.70;3.00;
69224;PMS1003;56333;51.306;17.056;2023-12-20T02:04:36;3.90;3.10;
69224;PMS1003;56333;51.306;17.056;2023-12-20T02:06:05;3.90;2.90;
69224;PMS1003;56333;51.306;17.056;2023-12-20T02:07:34;4.60;3.30;
69224;PMS1003;56333;51.306;17.056;2023-12-20T02:09:02;3.50;2.90;
69224;PMS1003;56333;51.306;17.056;2023-12-20T02:10:31;4.20;3.30;
69224;PMS1003;56333;51.306;17.056;2023-12-20T02:11:59;4.30;3.10;
69224;PMS1003;56333;51.306;17.056;2023-12-20T02:13:27;4.00;3.30;
69224;PMS1003;56333;51.306;17.056;2023-12-20T02:14:55;3.60;3.20;
69224;PMS1003;56333;51.306;17.056;2023-12-20T02:16:24;3.60;2.80;
69224;PMS1003;56333;51.306;17.056;2023-12-20T02:17:52;4.00;3.10;
69224;PMS1003;56333;51.306;17.056;2023-12-20T02:19:21;3.50;2.90;
69224;PMS1003;56333;51.306;17.056;2023-12-20T02:20:49;4.30;3.20;
69224;PMS1003;56333;51.306;17.056;2023-12-20T02:22:18;4.10;2.90;
69224;PMS1003;56333;51.306;17.056;2023-12-20T02:23:46;4.30;3.30;
69224;PMS1003;56333;51.306;17.056;2023-12-20T02:25:14;3.50;2.80;
69224;PMS1003;56333;51.306;17.056;2023-12-20T02:26:42;3.30;2.70;
69224;PMS1003;56333;51.306;17.056;2023-12-20T02:28:11;4.30;3.30;
69224;PMS1003;56333;51.306;17.056;2023-12-20T02:29:40;3.50;2.90;
69224;PMS1003;56333;51.306;17.056;2023-12-20T02:31:08;3.60;2.90;
69224;PMS1003;56333;51.306;17.056;2023-12-20T02:32:36;4.10;3.10;
69224;PMS1003;56333;51.306;17.056;2023-12-20T02:34:04;3.70;3.10;
69224;PMS1003;56333;51.306;17.056;2023-12-20T02:35:32;4.20;3.00;
69224;PMS1003;56333;51.306;17.056;2023-12-20T02:37:00;3.90;3.40;
69224;PMS1003;56333;51.306;17.056;2023-12-20T02:38:28;3.80;2.90;
69224;PMS1003;56333;51.306;17.056;2023-12-20T02:39:56;4.30;3.40;
69224;PMS1003;56333;51.306;17.056;2023-12-20T02:41:24;4.70;3.30;
69224;PMS1003;56333;51.306;17.056;2023-12-20T02:42:53;5.00;3.50;
69224;PMS1003;56333;51.306;17.056;2023-12-20T02:44:21;4.30;3.30;
69224;PMS1003;56333;51.306;17.056;2023-12-20T02:45:49;4.80;3.50;
69224;PMS1003;56333;51.306;17.056;2023-12-20T02:47:18;4.00;3.20;
69224;PMS1003;56333;51.306;17.056;2023-12-20T02:48:46;4.30;2.90;
69224;PMS1003;56333;51.306;17.056;2023-12-20T02:50:14;3.50;2.90;
69224;PMS1003;56333;51.306;17.056;2023-12-20T02:51:43;3.70;2.80;
69224;PMS1003;56333;51.306;17.056;2023-12-20T02:53:12;4.20;2.80;
69224;PMS1003;56333;51.306;17.056;2023-12-20T02:54:39;2.70;2.10;
69224;PMS1003;56333;51.306;17.056;2023-12-20T02:56:08;3.60;2.50;
69224;PMS1003;56333;51.306;17.056;2023-12-20T02:57:36;3.40;2.50;
69224;PMS1003;56333;51.306;17.056;2023-12-20T02:59:06;4.10;2.50;
69224;PMS1003;56333;51.306;17.056;2023-12-20T03:00:35;2.70;2.00;
69224;PMS1003;56333;51.306;17.056;2023-12-20T03:02:03;3.10;2.00;
69224;PMS1003;56333;51.306;17.056;2023-12-20T03:03:31;2.70;1.90;
69224;PMS1003;56333;51.306;17.056;2023-12-20T03:04:59;2.30;1.70;
69224;PMS1003;56333;51.306;17.056;2023-12-20T03:06:28;3.40;2.00;
69224;PMS1003;56333;51.306;17.056;2023-12-20T03:07:56;2.70;1.90;
69224;PMS1003;56333;51.306;17.056;2023-12-20T03:09:24;2.30;1.80;
69224;PMS1003;56333;51.306;17.056;2023-12-20T03:10:52;2.30;1.60;
69224;PMS1003;56333;51.306;17.056;2023-12-20T03:12:20;2.10;1.70;
69224;PMS1003;56333;51.306;17.056;2023-12-20T03:13:48;2.30;1.80;
69224;PMS1003;56333;51.306;17.056;2023-12-20T03:15:16;2.50;1.70;
69224;PMS1003;56333;51.306;17.056;2023-12-20T03:16:50;3.00;1.90;
69224;PMS1003;56333;51.306;17.056;2023-12-20T03:18:18;2.60;1.80;
69224;PMS1003;56333;51.306;17.056;2023-12-20T03:19:46;3.00;1.80;
69224;PMS1003;56333;51.306;17.056;2023-12-20T03:21:14;1.90;1.50;
69224;PMS1003;56333;51.306;17.056;2023-12-20T03:22:43;2.60;1.70;
69224;PMS1003;56333;51.306;17.056;2023-12-20T03:24:10;2.20;1.70;
69224;PMS1003;56333;51.306;17.056;2023-12-20T03:25:38;2.30;1.60;
69224;PMS1003;56333;51.306;17.056;2023-12-20T03:27:07;2.70;1.90;
69224;PMS1003;56333;51.306;17.056;2023-12-20T03:28:35;2.70;1.80;
69224;PMS1003;56333;51.306;17.056;2023-12-20T03:30:05;2.50;1.80;
69224;PMS1003;56333;51.306;17.056;2023-12-20T03:31:34;2.30;1.60;
69224;PMS1003;56333;51.306;17.056;2023-12-20T03:33:02;3.10;1.60;
69224;PMS1003;56333;51.306;17.056;2023-12-20T03:34:30;2.30;1.70;
69224;PMS1003;56333;51.306;17.056;2023-12-20T03:35:58;2.30;1.60;
69224;PMS1003;56333;51.306;17.056;2023-12-20T03:37:26;2.30;1.50;
69224;PMS1003;56333;51.306;17.056;2023-12-20T03:38:54;1.90;1.40;
69224;PMS1003;56333;51.306;17.056;2023-12-20T03:40:23;1.90;1.50;
69224;PMS1003;56333;51.306;17.056;2023-12-20T03:41:50;2.20;1.50;
69224;PMS1003;56333;51.306;17.056;2023-12-20T03:43:18;2.10;1.50;
69224;PMS1003;56333;51.306;17.056;2023-12-20T03:44:46;1.70;1.30;
69224;PMS1003;56333;51.306;17.056;2023-12-20T03:46:14;2.10;1.60;
69224;PMS1003;56333;51.306;17.056;2023-12-20T03:47:42;2.00;1.60;
69224;PMS1003;56333;51.306;17.056;2023-12-20T03:49:10;2.10;1.50;
69224;PMS1003;56333;51.306;17.056;2023-12-20T03:50:38;2.00;1.30;
69224;PMS1003;56333;51.306;17.056;2023-12-20T03:52:06;1.60;1.30;
69224;PMS1003;56333;51.306;17.056;2023-12-20T03:53:34;1.80;1.30;
69224;PMS1003;56333;51.306;17.056;2023-12-20T03:55:03;2.00;1.50;
69224;PMS1003;56333;51.306;17.056;2023-12-20T03:56:32;1.60;1.30;
69224;PMS1003;56333;51.306;17.056;2023-12-20T03:58:00;2.20;1.60;
69224;PMS1003;56333;51.306;17.056;2023-12-20T03:59:28;2.40;1.70;
69224;PMS1003;56333;51.306;17.056;2023-12-20T04:00:56;2.20;1.80;
69224;PMS1003;56333;51.306;17.056;2023-12-20T04:02:24;2.90;1.90;
69224;PMS1003;56333;51.306;17.056;2023-12-20T04:03:52;2.80;1.70;
69224;PMS1003;56333;51.306;17.056;2023-12-20T04:05:21;2.60;1.80;
69224;PMS1003;56333;51.306;17.056;2023-12-20T04:06:48;3.50;2.40;
69224;PMS1003;56333;51.306;17.056;2023-12-20T04:08:17;2.00;1.60;
69224;PMS1003;56333;51.306;17.056;2023-12-20T04:09:44;2.30;1.70;
69224;PMS1003;56333;51.306;17.056;2023-12-20T04:11:13;2.20;1.70;
69224;PMS1003;56333;51.306;17.056;2023-12-20T04:12:41;2.30;1.60;
69224;PMS1003;56333;51.306;17.056;2023-12-20T04:14:09;2.10;1.70;
69224;PMS1003;56333;51.306;17.056;2023-12-20T04:15:37;1.90;1.40;
69224;PMS1003;56333;51.306;17.056;2023-12-20T04:17:05;1.90;1.50;
69224;PMS1003;56333;51.306;17.056;2023-12-20T04:18:34;2.10;1.60;
69224;PMS1003;56333;51.306;17.056;2023-12-20T04:20:02;2.40;1.60;
69224;PMS1003;56333;51.306;17.056;2023-12-20T04:21:31;2.30;1.60;
69224;PMS1003;56333;51.306;17.056;2023-12-20T04:22:59;2.80;1.60;
69224;PMS1003;56333;51.306;17.056;2023-12-20T04:24:28;2.80;1.70;
69224;PMS1003;56333;51.306;17.056;2023-12-20T04:25:57;2.20;1.70;
69224;PMS1003;56333;51.306;17.056;2023-12-20T04:27:25;2.40;1.70;
69224;PMS1003;56333;51.306;17.056;2023-12-20T04:28:53;2.40;1.60;
69224;PMS1003;56333;51.306;17.056;2023-12-20T04:30:22;2.70;1.80;
69224;PMS1003;56333;51.306;17.056;2023-12-20T04:31:51;2.70;1.90;
69224;PMS1003;56333;51.306;17.056;2023-12-20T04:33:19;2.20;1.80;
69224;PMS1003;56333;51.306;17.056;2023-12-20T04:34:49;2.10;1.70;
69224;PMS1003;56333;51.306;17.056;2023-12-20T04:36:19;2.00;1.60;
69224;PMS1003;56333;51.306;17.056;2023-12-20T04:37:48;2.80;1.90;
69224;PMS1003;56333;51.306;17.056;2023-12-20T04:39:16;2.80;1.90;
69224;PMS1003;56333;51.306;17.056;2023-12-20T04:40:44;2.40;1.70;
69224;PMS1003;56333;51.306;17.056;2023-12-20T04:42:13;2.20;1.80;
69224;PMS1003;56333;51.306;17.056;2023-12-20T04:43:42;3.20;1.90;
69224;PMS1003;56333;51.306;17.056;2023-12-20T04:45:11;1.60;1.50;
69224;PMS1003;56333;51.306;17.056;2023-12-20T04:46:41;2.00;1.50;
69224;PMS1003;56333;51.306;17.056;2023-12-20T04:48:10;2.80;1.90;
69224;PMS1003;56333;51.306;17.056;2023-12-20T04:49:38;2.10;1.70;
69224;PMS1003;56333;51.306;17.056;2023-12-20T04:51:06;2.00;1.60;
69224;PMS1003;56333;51.306;17.056;2023-12-20T04:52:35;2.80;1.60;
69224;PMS1003;56333;51.306;17.056;2023-12-20T04:54:03;2.10;1.60;
69224;PMS1003;56333;51.306;17.056;2023-12-20T04:55:31;1.80;1.60;
69224;PMS1003;56333;51.306;17.056;2023-12-20T04:57:00;3.00;1.60;
69224;PMS1003;56333;51.306;17.056;2023-12-20T04:58:27;2.30;1.80;
69224;PMS1003;56333;51.306;17.056;2023-12-20T04:59:55;1.80;1.50;
69224;PMS1003;56333;51.306;17.056;2023-12-20T05:01:23;2.30;1.70;
69224;PMS1003;56333;51.306;17.056;2023-12-20T05:02:51;2.40;1.80;
69224;PMS1003;56333;51.306;17.056;2023-12-20T05:04:19;2.00;1.70;
69224;PMS1003;56333;51.306;17.056;2023-12-20T05:05:47;2.40;1.60;
69224;PMS1003;56333;51.306;17.056;2023-12-20T05:07:16;2.70;1.60;
69224;PMS1003;56333;51.306;17.056;2023-12-20T05:08:43;2.90;1.70;
69224;PMS1003;56333;51.306;17.056;2023-12-20T05:10:12;2.20;1.60;
69224;PMS1003;56333;51.306;17.056;2023-12-20T05:11:40;2.30;1.70;
69224;PMS1003;56333;51.306;17.056;2023-12-20T05:13:08;2.00;1.70;
69224;PMS1003;56333;51.306;17.056;2023-12-20T05:14:36;2.80;1.70;
69224;PMS1003;56333;51.306;17.056;2023-12-20T05:16:06;2.40;1.80;
69224;PMS1003;56333;51.306;17.056;2023-12-20T05:17:34;2.20;1.80;
69224;PMS1003;56333;51.306;17.056;2023-12-20T05:19:02;2.40;1.80;
69224;PMS1003;56333;51.306;17.056;2023-12-20T05:20:32;2.40;1.80;
69224;PMS1003;56333;51.306;17.056;2023-12-20T05:22:01;2.10;1.70;
69224;PMS1003;56333;51.306;17.056;2023-12-20T05:23:30;3.20;2.00;
69224;PMS1003;56333;51.306;17.056;2023-12-20T05:24:58;2.80;2.20;
69224;PMS1003;56333;51.306;17.056;2023-12-20T05:26:26;2.80;2.20;
69224;PMS1003;56333;51.306;17.056;2023-12-20T05:27:55;3.90;2.60;
69224;PMS1003;56333;51.306;17.056;2023-12-20T05:29:24;3.80;3.30;
69224;PMS1003;56333;51.306;17.056;2023-12-20T05:30:51;3.60;2.90;
69224;PMS1003;56333;51.306;17.056;2023-12-20T05:32:19;3.10;2.40;
69224;PMS1003;56333;51.306;17.056;2023-12-20T05:33:47;3.40;2.60;
69224;PMS1003;56333;51.306;17.056;2023-12-20T05:35:16;5.00;3.90;
69224;PMS1003;56333;51.306;17.056;2023-12-20T05:36:44;9.90;7.70;
69224;PMS1003;56333;51.306;17.056;2023-12-20T05:38:13;5.80;4.70;
69224;PMS1003;56333;51.306;17.056;2023-12-20T05:39:42;4.90;4.20;
69224;PMS1003;56333;51.306;17.056;2023-12-20T05:41:10;4.70;3.70;
69224;PMS1003;56333;51.306;17.056;2023-12-20T05:42:38;4.00;3.10;
69224;PMS1003;56333;51.306;17.056;2023-12-20T05:44:07;3.40;2.80;
69224;PMS1003;56333;51.306;17.056;2023-12-20T05:45:36;4.00;3.20;
69224;PMS1003;56333;51.306;17.056;2023-12-20T05:47:04;3.20;2.70;
69224;PMS1003;56333;51.306;17.056;2023-12-20T05:48:32;3.30;2.60;
69224;PMS1003;56333;51.306;17.056;2023-12-20T05:50:00;3.60;2.80;
69224;PMS1003;56333;51.306;17.056;2023-12-20T05:51:29;3.70;2.80;
69224;PMS1003;56333;51.306;17.056;2023-12-20T05:52:59;3.50;2.70;
69224;PMS1003;56333;51.306;17.056;2023-12-20T05:54:26;3.10;2.50;
69224;PMS1003;56333;51.306;17.056;2023-12-20T05:55:55;3.10;2.70;
69224;PMS1003;56333;51.306;17.056;2023-12-20T05:57:23;3.30;2.60;
69224;PMS1003;56333;51.306;17.056;2023-12-20T05:58:51;2.90;2.50;
69224;PMS1003;56333;51.306;17.056;2023-12-20T06:00:20;4.10;2.90;
69224;PMS1003;56333;51.306;17.056;2023-12-20T06:01:49;3.00;2.60;
69224;PMS1003;56333;51.306;17.056;2023-12-20T06:03:18;3.70;2.70;
69224;PMS1003;56333;51.306;17.056;2023-12-20T06:04:46;3.40;2.60;
69224;PMS1003;56333;51.306;17.056;2023-12-20T06:06:14;3.20;2.60;
69224;PMS1003;56333;51.306;17.056;2023-12-20T06:07:42;2.70;2.20;
69224;PMS1003;56333;51.306;17.056;2023-12-20T06:09:12;2.90;2.40;
69224;PMS1003;56333;51.306;17.056;2023-12-20T06:10:41;3.00;2.50;
69224;PMS1003;56333;51.306;17.056;2023-12-20T06:12:10;3.10;2.40;
69224;PMS1003;56333;51.306;17.056;2023-12-20T06:13:38;3.50;3.00;
69224;PMS1003;56333;51.306;17.056;2023-12-20T06:15:07;3.90;2.90;
69224;PMS1003;56333;51.306;17.056;2023-12-20T06:16:36;3.90;2.90;
69224;PMS1003;56333;51.306;17.056;2023-12-20T06:18:04;3.10;2.50;
69224;PMS1003;56333;51.306;17.056;2023-12-20T06:19:32;3.00;2.60;
69224;PMS1003;56333;51.306;17.056;2023-12-20T06:21:00;4.10;2.60;
69224;PMS1003;56333;51.306;17.056;2023-12-20T06:22:28;2.80;2.40;
69224;PMS1003;56333;51.306;17.056;2023-12-20T06:23:58;3.50;2.80;
69224;PMS1003;56333;51.306;17.056;2023-12-20T06:25:26;3.20;2.60;
69224;PMS1003;56333;51.306;17.056;2023-12-20T06:26:54;3.20;2.70;
69224;PMS1003;56333;51.306;17.056;2023-12-20T06:28:22;3.10;2.50;
69224;PMS1003;56333;51.306;17.056;2023-12-20T06:29:50;2.80;2.50;
69224;PMS1003;56333;51.306;17.056;2023-12-20T06:31:18;3.00;2.50;
69224;PMS1003;56333;51.306;17.056;2023-12-20T06:32:46;4.00;2.90;
69224;PMS1003;56333;51.306;17.056;2023-12-20T06:34:14;3.70;3.00;
69224;PMS1003;56333;51.306;17.056;2023-12-20T06:35:42;3.70;3.00;
69224;PMS1003;56333;51.306;17.056;2023-12-20T06:37:10;3.10;2.80;
69224;PMS1003;56333;51.306;17.056;2023-12-20T06:38:38;3.20;2.80;
69224;PMS1003;56333;51.306;17.056;2023-12-20T06:40:10;3.70;3.10;
69224;PMS1003;56333;51.306;17.056;2023-12-20T06:41:39;4.00;2.80;
69224;PMS1003;56333;51.306;17.056;2023-12-20T06:43:09;3.40;3.10;
69224;PMS1003;56333;51.306;17.056;2023-12-20T06:44:37;3.80;3.20;
69224;PMS1003;56333;51.306;17.056;2023-12-20T06:46:05;3.50;3.00;
69224;PMS1003;56333;51.306;17.056;2023-12-20T06:47:33;3.70;2.90;
69224;PMS1003;56333;51.306;17.056;2023-12-20T06:49:02;3.50;2.80;
69224;PMS1003;56333;51.306;17.056;2023-12-20T06:50:29;3.60;3.00;
69224;PMS1003;56333;51.306;17.056;2023-12-20T06:51:58;3.30;2.70;
69224;PMS1003;56333;51.306;17.056;2023-12-20T06:53:26;3.70;2.90;
69224;PMS1003;56333;51.306;17.056;2023-12-20T06:54:55;3.20;2.70;
69224;PMS1003;56333;51.306;17.056;2023-12-20T06:56:23;3.20;2.80;
69224;PMS1003;56333;51.306;17.056;2023-12-20T06:57:51;3.80;2.70;
69224;PMS1003;56333;51.306;17.056;2023-12-20T06:59:18;3.40;2.50;
69224;PMS1003;56333;51.306;17.056;2023-12-20T07:00:47;3.60;2.80;
69224;PMS1003;56333;51.306;17.056;2023-12-20T07:02:14;3.10;2.50;
69224;PMS1003;56333;51.306;17.056;2023-12-20T07:03:43;3.20;2.70;
69224;PMS1003;56333;51.306;17.056;2023-12-20T07:05:12;3.30;2.70;
69224;PMS1003;56333;51.306;17.056;2023-12-20T07:06:40;3.30;2.40;
69224;PMS1003;56333;51.306;17.056;2023-12-20T07:08:09;2.80;2.30;
69224;PMS1003;56333;51.306;17.056;2023-12-20T07:09:39;3.20;2.60;
69224;PMS1003;56333;51.306;17.056;2023-12-20T07:11:10;3.20;2.50;
69224;PMS1003;56333;51.306;17.056;2023-12-20T07:12:38;3.00;2.50;
69224;PMS1003;56333;51.306;17.056;2023-12-20T07:14:06;3.10;2.40;
69224;PMS1003;56333;51.306;17.056;2023-12-20T07:15:35;2.60;2.10;
69224;PMS1003;56333;51.306;17.056;2023-12-20T07:17:04;2.50;2.00;
69224;PMS1003;56333;51.306;17.056;2023-12-20T07:18:36;2.60;1.90;
69224;PMS1003;56333;51.306;17.056;2023-12-20T07:20:06;3.00;1.90;
69224;PMS1003;56333;51.306;17.056;2023-12-20T07:21:36;2.20;1.70;
69224;PMS1003;56333;51.306;17.056;2023-12-20T07:23:04;2.30;1.60;
69224;PMS1003;56333;51.306;17.056;2023-12-20T07:24:32;3.40;1.90;
69224;PMS1003;56333;51.306;17.056;2023-12-20T07:25:59;2.40;1.90;
69224;PMS1003;56333;51.306;17.056;2023-12-20T07:27:29;3.10;2.00;
69224;PMS1003;56333;51.306;17.056;2023-12-20T07:28:57;3.30;2.80;
69224;PMS1003;56333;51.306;17.056;2023-12-20T07:30:25;2.80;2.00;
69224;PMS1003;56333;51.306;17.056;2023-12-20T07:31:53;4.20;2.70;
69224;PMS1003;56333;51.306;17.056;2023-12-20T07:33:21;3.40;2.40;
69224;PMS1003;56333;51.306;17.056;2023-12-20T07:34:49;5.00;3.10;
69224;PMS1003;56333;51.306;17.056;2023-12-20T07:36:19;4.60;2.90;
69224;PMS1003;56333;51.306;17.056;2023-12-20T07:37:48;3.80;3.20;
69224;PMS1003;56333;51.306;17.056;2023-12-20T07:39:16;3.90;2.70;
69224;PMS1003;56333;51.306;17.056;2023-12-20T07:40:44;3.60;2.90;
69224;PMS1003;56333;51.306;17.056;2023-12-20T07:42:12;5.90;2.70;
69224;PMS1003;56333;51.306;17.056;2023-12-20T07:43:41;3.10;2.00;
69224;PMS1003;56333;51.306;17.056;2023-12-20T07:45:10;3.70;2.50;
69224;PMS1003;56333;51.306;17.056;2023-12-20T07:46:38;3.20;2.10;
69224;PMS1003;56333;51.306;17.056;2023-12-20T07:48:08;3.00;2.00;
69224;PMS1003;56333;51.306;17.056;2023-12-20T07:49:36;2.90;1.90;
69224;PMS1003;56333;51.306;17.056;2023-12-20T07:51:06;2.90;2.00;
69224;PMS1003;56333;51.306;17.056;2023-12-20T07:52:35;2.80;2.10;
69224;PMS1003;56333;51.306;17.056;2023-12-20T07:54:03;2.40;1.80;
69224;PMS1003;56333;51.306;17.056;2023-12-20T07:55:33;2.80;2.00;
69224;PMS1003;56333;51.306;17.056;2023-12-20T07:57:01;2.90;1.90;
69224;PMS1003;56333;51.306;17.056;2023-12-20T07:58:29;3.00;2.20;
69224;PMS1003;56333;51.306;17.056;2023-12-20T07:59:57;3.00;2.10;
69224;PMS1003;56333;51.306;17.056;2023-12-20T08:01:25;2.40;1.90;
69224;PMS1003;56333;51.306;17.056;2023-12-20T08:02:54;3.20;2.40;
69224;PMS1003;56333;51.306;17.056;2023-12-20T08:04:22;3.50;2.20;
69224;PMS1003;56333;51.306;17.056;2023-12-20T08:05:51;2.50;2.00;
69224;PMS1003;56333;51.306;17.056;2023-12-20T08:07:19;2.50;1.80;
69224;PMS1003;56333;51.306;17.056;2023-12-20T08:08:47;2.70;1.90;
69224;PMS1003;56333;51.306;17.056;2023-12-20T08:10:15;2.90;2.20;
69224;PMS1003;56333;51.306;17.056;2023-12-20T08:11:49;2.70;2.00;
69224;PMS1003;56333;51.306;17.056;2023-12-20T08:13:16;3.80;2.20;
69224;PMS1003;56333;51.306;17.056;2023-12-20T08:14:45;2.30;1.80;
69224;PMS1003;56333;51.306;17.056;2023-12-20T08:16:13;2.90;1.70;
69224;PMS1003;56333;51.306;17.056;2023-12-20T08:17:43;2.70;1.70;
69224;PMS1003;56333;51.306;17.056;2023-12-20T08:19:10;2.20;1.70;
69224;PMS1003;56333;51.306;17.056;2023-12-20T08:20:39;3.00;1.90;
69224;PMS1003;56333;51.306;17.056;2023-12-20T08:22:07;2.60;1.80;
69224;PMS1003;56333;51.306;17.056;2023-12-20T08:23:35;3.00;1.90;
69224;PMS1003;56333;51.306;17.056;2023-12-20T08:25:04;2.70;2.10;
69224;PMS1003;56333;51.306;17.056;2023-12-20T08:26:35;2.60;2.00;
69224;PMS1003;56333;51.306;17.056;2023-12-20T08:28:04;2.40;1.70;
69224;PMS1003;56333;51.306;17.056;2023-12-20T08:29:33;3.40;1.80;
69224;PMS1003;56333;51.306;17.056;2023-12-20T08:31:02;2.50;1.80;
69224;PMS1003;56333;51.306;17.056;2023-12-20T08:32:30;2.90;1.90;
69224;PMS1003;56333;51.306;17.056;2023-12-20T08:33:58;2.80;1.70;
69224;PMS1003;56333;51.306;17.056;2023-12-20T08:35:26;2.90;2.10;
69224;PMS1003;56333;51.306;17.056;2023-12-20T08:36:54;2.40;1.70;
69224;PMS1003;56333;51.306;17.056;2023-12-20T08:38:23;2.50;1.90;
69224;PMS1003;56333;51.306;17.056;2023-12-20T08:39:51;3.20;2.10;
69224;PMS1003;56333;51.306;17.056;2023-12-20T08:41:19;3.40;2.50;
69224;PMS1003;56333;51.306;17.056;2023-12-20T08:42:47;4.40;2.20;
69224;PMS1003;56333;51.306;17.056;2023-12-20T08:44:15;3.80;2.10;
69224;PMS1003;56333;51.306;17.056;2023-12-20T08:45:43;2.40;1.90;
69224;PMS1003;56333;51.306;17.056;2023-12-20T08:47:11;2.90;1.90;
69224;PMS1003;56333;51.306;17.056;2023-12-20T08:48:41;2.30;1.60;
69224;PMS1003;56333;51.306;17.056;2023-12-20T08:50:10;2.70;1.70;
69224;PMS1003;56333;51.306;17.056;2023-12-20T08:51:39;2.80;1.70;
69224;PMS1003;56333;51.306;17.056;2023-12-20T08:53:07;3.00;1.90;
69224;PMS1003;56333;51.306;17.056;2023-12-20T08:54:36;2.70;1.80;
69224;PMS1003;56333;51.306;17.056;2023-12-20T08:56:04;3.50;1.90;
69224;PMS1003;56333;51.306;17.056;2023-12-20T08:57:32;2.80;2.00;
69224;PMS1003;56333;51.306;17.056;2023-12-20T08:59:00;2.80;2.10;
69224;PMS1003;56333;51.306;17.056;2023-12-20T09:00:28;3.30;1.80;
69224;PMS1003;56333;51.306;17.056;2023-12-20T09:01:56;3.00;2.00;